createdAt,value
2019-05-09T00:00:23.209Z,96720.91
2019-05-09T00:02:54.036Z,96723.59
2019-05-09T00:05:25.461Z,96720.59
2019-05-09T00:07:55.475Z,96717.39
2019-05-09T00:10:38.576Z,96722.06
2019-05-09T00:12:57.478Z,96721.17
2019-05-09T00:15:27.474Z,96719.71
2019-05-09T00:17:57.717Z,96716.41
2019-05-09T00:20:46.580Z,96713.95
2019-05-09T00:23:16.596Z,96715.23
2019-05-09T00:25:46.545Z,96718.05
2019-05-09T00:28:16.618Z,96722.25
2019-05-09T00:31:03.572Z,96721.66
2019-05-09T00:33:34.531Z,96719.45
2019-05-09T00:36:04.748Z,96720.60
2019-05-09T00:38:38.977Z,96709.75
2019-05-09T00:41:08.953Z,96715.91
2019-05-09T00:43:40.202Z,96707.72
2019-05-09T00:46:29.065Z,96706.37
2019-05-09T00:49:05.088Z,96710.00
2019-05-09T00:51:35.190Z,96713.65
2019-05-09T00:54:05.643Z,96710.45
2019-05-09T00:56:36.181Z,96709.95
2019-05-09T00:59:06.207Z,96707.59
2019-05-09T01:01:36.142Z,96703.89
2019-05-09T01:04:06.418Z,96709.37
2019-05-09T01:06:36.335Z,96709.40
2019-05-09T01:09:07.951Z,96704.92
2019-05-09T01:11:38.030Z,96701.88
2019-05-09T01:14:08.119Z,96702.64
2019-05-09T01:16:38.598Z,96692.03
2019-05-09T01:19:08.633Z,96687.55
2019-05-09T01:21:38.626Z,96678.94
2019-05-09T01:24:08.972Z,96685.13
2019-05-09T01:26:39.013Z,96687.55
2019-05-09T01:29:09.076Z,96693.52
2019-05-09T01:31:39.005Z,96695.85
2019-05-09T01:34:30.218Z,96697.31
2019-05-09T01:37:07.431Z,96685.09
2019-05-09T01:39:38.028Z,96693.17
2019-05-09T01:42:08.036Z,96695.78
2019-05-09T01:44:38.032Z,96695.86
2019-05-09T01:47:08.072Z,96696.77
2019-05-09T01:49:38.059Z,96691.70
2019-05-09T01:52:07.998Z,96701.97
2019-05-09T01:54:39.612Z,96702.50
2019-05-09T01:57:09.615Z,96696.58
2019-05-09T01:59:39.868Z,96694.61
2019-05-09T02:02:10.127Z,96694.38
2019-05-09T02:04:40.156Z,96689.53
2019-05-09T02:07:10.234Z,96689.03
2019-05-09T02:09:40.262Z,96677.32
2019-05-09T02:12:10.588Z,96682.30
2019-05-09T02:14:50.757Z,96684.46
2019-05-09T02:17:35.262Z,96685.37
2019-05-09T02:20:05.867Z,96674.55
2019-05-09T02:22:36.331Z,96676.94
2019-05-09T02:25:10.920Z,96678.11
2019-05-09T02:27:40.959Z,96681.41
2019-05-09T02:30:15.148Z,96681.16
2019-05-09T02:32:44.956Z,96679.94
2019-05-09T02:35:15.483Z,96679.34
2019-05-09T02:37:45.400Z,96679.42
2019-05-09T02:40:18.765Z,96679.84
2019-05-09T02:42:49.018Z,96675.69
2019-05-09T02:45:19.698Z,96678.30
2019-05-09T02:47:49.693Z,96675.19
2019-05-09T02:50:19.907Z,96669.05
2019-05-09T02:52:49.817Z,96677.27
2019-05-09T02:55:20.391Z,96678.20
2019-05-09T02:57:52.226Z,96678.42
2019-05-09T03:00:29.678Z,96671.88
2019-05-09T03:03:10.163Z,96681.58
2019-05-09T03:05:40.487Z,96671.14
2019-05-09T03:08:10.569Z,96661.31
2019-05-09T03:10:40.533Z,96666.66
2019-05-09T03:13:10.553Z,96662.11
2019-05-09T03:15:40.886Z,96657.89
2019-05-09T03:18:10.936Z,96664.08
2019-05-09T03:20:49.297Z,96661.86
2019-05-09T03:23:19.597Z,96665.95
2019-05-09T03:25:49.606Z,96657.96
2019-05-09T03:28:28.744Z,96662.64
2019-05-09T03:30:59.881Z,96668.66
2019-05-09T03:33:35.242Z,96664.12
2019-05-09T03:36:01.519Z,96658.64
2019-05-09T03:38:31.617Z,96663.72
2019-05-09T03:41:01.581Z,96656.92
2019-05-09T03:43:31.528Z,96664.47
2019-05-09T03:46:08.570Z,96659.12
2019-05-09T03:48:43.563Z,96661.08
2019-05-09T03:51:13.619Z,96660.77
2019-05-09T03:53:43.620Z,96655.02
2019-05-09T03:56:18.157Z,96656.94
2019-05-09T03:58:48.266Z,96657.11
2019-05-09T04:01:18.267Z,96650.62
2019-05-09T04:03:48.274Z,96646.27
2019-05-09T04:06:18.582Z,96640.13
2019-05-09T04:08:48.807Z,96642.66
2019-05-09T04:11:18.756Z,96645.64
2019-05-09T04:13:54.561Z,96650.83
2019-05-09T04:16:24.768Z,96647.73
2019-05-09T04:18:54.691Z,96647.05
2019-05-09T04:21:24.805Z,96652.89
2019-05-09T04:23:55.038Z,96657.11
2019-05-09T04:26:48.755Z,96657.08
2019-05-09T04:29:18.672Z,96658.22
2019-05-09T04:31:48.677Z,96655.08
2019-05-09T04:34:18.893Z,96657.52
2019-05-09T04:36:48.860Z,96643.11
2019-05-09T04:39:23.377Z,96643.13
2019-05-09T04:41:50.569Z,96645.85
2019-05-09T04:44:37.366Z,96653.96
2019-05-09T04:47:08.769Z,96651.31
2019-05-09T04:49:40.958Z,96651.55
2019-05-09T04:52:10.553Z,96651.39
2019-05-09T04:54:40.673Z,96655.39
2019-05-09T04:57:10.729Z,96654.75
2019-05-09T04:59:40.739Z,96646.14
2019-05-09T05:02:20.755Z,96651.00
2019-05-09T05:04:50.703Z,96658.20
2019-05-09T05:07:20.928Z,96652.84
2019-05-09T05:09:50.877Z,96650.66
2019-05-09T05:12:20.917Z,96644.25
2019-05-09T05:14:51.116Z,96648.53
2019-05-09T05:17:21.101Z,96649.13
2019-05-09T05:19:51.397Z,96646.67
2019-05-09T05:22:28.341Z,96642.52
2019-05-09T05:25:01.225Z,96649.61
2019-05-09T05:27:31.263Z,96643.35
2019-05-09T05:30:01.208Z,96646.64
2019-05-09T05:32:38.581Z,96642.78
2019-05-09T05:35:21.443Z,96636.61
2019-05-09T05:37:51.541Z,96646.52
2019-05-09T05:40:21.526Z,96637.94
2019-05-09T05:42:51.506Z,96639.12
2019-05-09T05:45:21.697Z,96641.09
2019-05-09T05:47:57.632Z,96646.23
2019-05-09T05:50:28.207Z,96644.59
2019-05-09T05:52:58.458Z,96642.42
2019-05-09T05:55:28.439Z,96638.34
2019-05-09T05:57:58.552Z,96642.41
2019-05-09T06:00:28.755Z,96637.27
2019-05-09T06:02:58.961Z,96638.33
2019-05-09T06:05:28.917Z,96629.50
2019-05-09T06:07:58.874Z,96633.33
2019-05-09T06:10:29.144Z,96634.17
2019-05-09T06:12:59.181Z,96630.60
2019-05-09T06:15:29.537Z,96625.59
2019-05-09T06:17:59.577Z,96626.01
2019-05-09T06:20:29.512Z,96627.22
2019-05-09T06:22:59.455Z,96624.32
2019-05-09T06:25:30.792Z,96626.11
2019-05-09T06:28:00.874Z,96626.95
2019-05-09T06:30:31.405Z,96628.10
2019-05-09T06:33:04.715Z,96632.48
2019-05-09T06:35:33.152Z,96632.25
2019-05-09T06:38:03.348Z,96631.31
2019-05-09T06:40:33.550Z,96630.99
2019-05-09T06:43:18.393Z,96640.81
2019-05-09T06:46:07.909Z,96641.47
2019-05-09T06:48:38.027Z,96645.14
2019-05-09T06:51:08.150Z,96639.32
2019-05-09T06:53:38.196Z,96636.36
2019-05-09T06:56:08.351Z,96637.70
2019-05-09T06:58:38.566Z,96632.34
2019-05-09T07:01:28.542Z,96630.96
2019-05-09T07:04:04.647Z,96630.26
2019-05-09T07:06:38.305Z,96628.52
2019-05-09T07:09:17.498Z,96628.66
2019-05-09T07:11:48.771Z,96620.19
2019-05-09T07:14:40.682Z,96610.91
2019-05-09T07:17:08.352Z,96615.13
2019-05-09T07:19:38.661Z,96620.57
2019-05-09T07:22:39.015Z,96613.09
2019-05-09T07:25:18.646Z,96604.36
2019-05-09T07:27:48.628Z,96594.81
2019-05-09T07:30:34.018Z,96594.52
2019-05-09T07:33:22.878Z,96592.26
2019-05-09T07:35:52.832Z,96578.67
2019-05-09T07:38:30.075Z,96581.56
2019-05-09T07:41:00.635Z,96578.69
2019-05-09T07:43:30.745Z,96585.98
2019-05-09T07:46:09.927Z,96582.80
2019-05-09T07:48:40.219Z,96577.00
2019-05-09T07:51:10.320Z,96566.56
2019-05-09T07:53:40.243Z,96568.37
2019-05-09T07:56:10.345Z,96561.61
2019-05-09T07:58:40.369Z,96560.05
2019-05-09T08:01:10.366Z,96563.27
2019-05-09T08:03:40.345Z,96562.81
2019-05-09T08:06:10.386Z,96559.20
2019-05-09T08:08:40.310Z,96554.30
2019-05-09T08:11:10.353Z,96550.31
2019-05-09T08:13:40.290Z,96552.91
2019-05-09T08:16:14.564Z,96552.07
2019-05-09T08:18:42.075Z,96558.26
2019-05-09T08:21:12.170Z,96564.91
2019-05-09T08:23:42.107Z,96562.33
2019-05-09T08:26:12.151Z,96572.44
2019-05-09T08:28:42.094Z,96572.48
2019-05-09T08:31:12.116Z,96582.55
2019-05-09T08:33:42.146Z,96582.73
2019-05-09T08:36:12.578Z,96593.14
2019-05-09T08:38:42.744Z,96598.05
2019-05-09T08:41:18.646Z,96600.47
2019-05-09T08:43:48.525Z,96605.94
2019-05-09T08:46:18.667Z,96611.95
2019-05-09T08:48:48.741Z,96615.38
2019-05-09T08:51:25.097Z,96619.45
2019-05-09T08:53:57.633Z,96621.03
2019-05-09T08:56:28.359Z,96623.30
2019-05-09T08:59:02.002Z,96627.89
2019-05-09T09:01:50.165Z,96625.23
2019-05-09T09:04:02.075Z,96633.47
2019-05-09T09:06:32.270Z,96637.89
2019-05-09T09:09:02.171Z,96639.59
2019-05-09T09:11:32.120Z,96636.07
2019-05-09T09:14:02.066Z,96633.32
2019-05-09T09:16:31.997Z,96638.63
2019-05-09T09:19:02.174Z,96639.76
2019-05-09T09:21:32.131Z,96640.41
2019-05-09T09:24:02.063Z,96640.48
2019-05-09T09:26:31.969Z,96636.80
2019-05-09T09:29:01.974Z,96624.05
2019-05-09T09:31:31.880Z,96625.52
2019-05-09T09:34:01.923Z,96618.95
2019-05-09T09:36:31.821Z,96618.14
2019-05-09T09:39:03.153Z,96615.41
2019-05-09T09:41:33.379Z,96614.38
2019-05-09T09:44:03.320Z,96616.22
2019-05-09T09:46:33.212Z,96610.36
2019-05-09T09:49:03.180Z,96601.69
2019-05-09T09:51:33.205Z,96599.69
2019-05-09T09:54:03.121Z,96592.27
2019-05-09T09:56:33.212Z,96595.48
2019-05-09T09:59:18.835Z,96599.78
2019-05-09T10:01:49.031Z,96590.78
2019-05-09T10:04:23.901Z,96576.77
2019-05-09T10:06:53.052Z,96580.73
2019-05-09T10:09:22.867Z,96570.16
2019-05-09T10:11:52.793Z,96573.78
2019-05-09T10:14:29.031Z,96568.06
2019-05-09T10:17:15.000Z,96567.41
2019-05-09T10:20:01.386Z,96566.11
2019-05-09T10:22:31.301Z,96559.12
2019-05-09T10:25:01.866Z,96552.52
2019-05-09T10:27:31.875Z,96553.39
2019-05-09T10:30:01.822Z,96552.07
2019-05-09T10:32:31.892Z,96553.34
2019-05-09T10:35:01.863Z,96552.62
2019-05-09T10:37:31.770Z,96552.16
2019-05-09T10:40:03.052Z,96549.52
2019-05-09T10:42:39.587Z,96536.56
2019-05-09T10:45:24.915Z,96536.94
2019-05-09T10:47:54.797Z,96519.94
2019-05-09T10:50:24.797Z,96521.11
2019-05-09T10:52:54.774Z,96518.11
2019-05-09T10:55:24.836Z,96521.09
2019-05-09T10:57:54.743Z,96524.38
2019-05-09T11:00:24.845Z,96521.67
2019-05-09T11:02:54.763Z,96509.39
2019-05-09T11:05:25.043Z,96523.16
2019-05-09T11:07:55.091Z,96503.89
2019-05-09T11:10:29.441Z,96506.03
2019-05-09T11:12:58.464Z,96500.98
2019-05-09T11:15:28.602Z,96506.77
2019-05-09T11:17:58.490Z,96497.59
2019-05-09T11:20:28.604Z,96493.45
2019-05-09T11:22:58.463Z,96498.93
2019-05-09T11:25:28.613Z,96497.88
2019-05-09T11:28:10.056Z,96495.80
2019-05-09T11:30:30.302Z,96493.41
2019-05-09T11:33:00.223Z,96507.57
2019-05-09T11:35:30.154Z,96506.42
2019-05-09T11:38:00.817Z,96508.53
2019-05-09T11:40:30.801Z,96512.40
2019-05-09T11:43:00.808Z,96519.45
2019-05-09T11:45:30.764Z,96500.56
2019-05-09T11:48:00.922Z,96522.20
2019-05-09T11:50:30.858Z,96522.05
2019-05-09T11:53:00.766Z,96525.56
2019-05-09T11:55:36.058Z,96528.62
2019-05-09T11:58:02.491Z,96539.68
2019-05-09T12:00:32.534Z,96543.80
2019-05-09T12:03:02.431Z,96538.91
2019-05-09T12:05:32.382Z,96540.16
2019-05-09T12:08:02.435Z,96542.06
2019-05-09T12:10:32.409Z,96542.71
2019-05-09T12:13:02.400Z,96552.45
2019-05-09T12:15:32.303Z,96557.09
2019-05-09T12:18:07.558Z,96560.83
2019-05-09T12:20:34.110Z,96559.06
2019-05-09T12:23:03.991Z,96558.13
2019-05-09T12:25:34.062Z,96559.04
2019-05-09T12:28:04.330Z,96551.84
2019-05-09T12:30:34.259Z,96548.47
2019-05-09T12:33:04.217Z,96542.50
2019-05-09T12:35:34.222Z,96542.02
2019-05-09T12:38:04.106Z,96550.47
2019-05-09T12:40:34.091Z,96549.67
2019-05-09T12:43:04.361Z,96547.13
2019-05-09T12:45:34.452Z,96541.90
2019-05-09T12:48:10.203Z,96537.47
2019-05-09T12:50:38.652Z,96547.64
2019-05-09T12:53:08.114Z,96536.61
2019-05-09T12:55:38.582Z,96537.62
2019-05-09T12:58:12.854Z,96531.23
2019-05-09T13:00:43.028Z,96538.11
2019-05-09T13:03:12.962Z,96540.47
2019-05-09T13:05:42.908Z,96538.58
2019-05-09T13:08:12.850Z,96527.52
2019-05-09T13:10:42.782Z,96542.88
2019-05-09T13:13:12.782Z,96539.31
2019-05-09T13:15:50.433Z,96542.20
2019-05-09T13:18:25.089Z,96547.53
2019-05-09T13:20:52.092Z,96545.36
2019-05-09T13:23:22.052Z,96558.72
2019-05-09T13:25:52.002Z,96556.91
2019-05-09T13:28:22.015Z,96556.66
2019-05-09T13:30:51.931Z,96553.78
2019-05-09T13:33:21.870Z,96559.45
2019-05-09T13:35:51.761Z,96551.78
2019-05-09T13:38:22.002Z,96557.16
2019-05-09T13:40:53.691Z,96557.34
2019-05-09T13:43:23.563Z,96560.67
2019-05-09T13:45:53.452Z,96560.20
2019-05-09T13:48:32.636Z,96565.10
2019-05-09T13:50:57.714Z,96578.39
2019-05-09T13:53:28.444Z,96593.39
2019-05-09T13:55:58.593Z,96607.88
2019-05-09T13:58:28.597Z,96595.14
2019-05-09T14:01:02.379Z,96604.03
2019-05-09T14:03:30.147Z,96613.83
2019-05-09T14:06:00.072Z,96610.13
2019-05-09T14:08:30.030Z,96610.95
2019-05-09T14:10:59.954Z,96612.48
2019-05-09T14:13:29.853Z,96604.72
2019-05-09T14:16:15.107Z,96612.89
2019-05-09T14:18:31.450Z,96610.89
2019-05-09T14:21:01.321Z,96620.88
2019-05-09T14:23:35.632Z,96616.07
2019-05-09T14:26:02.868Z,96627.28
2019-05-09T14:28:32.784Z,96629.77
2019-05-09T14:31:02.673Z,96632.86
2019-05-09T14:33:33.655Z,96631.45
2019-05-09T14:36:03.675Z,96631.14
2019-05-09T14:38:33.736Z,96631.58
2019-05-09T14:41:03.627Z,96637.84
2019-05-09T14:43:33.549Z,96637.65
2019-05-09T14:46:03.459Z,96629.52
2019-05-09T14:48:33.657Z,96640.09
2019-05-09T14:51:03.634Z,96640.84
2019-05-09T14:53:33.707Z,96640.83
2019-05-09T14:56:03.684Z,96639.17
2019-05-09T14:58:35.003Z,96637.64
2019-05-09T15:01:08.359Z,96647.30
2019-05-09T15:03:38.909Z,96650.67
2019-05-09T15:06:09.542Z,96660.91
2019-05-09T15:08:39.558Z,96662.70
2019-05-09T15:11:10.291Z,96672.18
2019-05-09T15:13:40.966Z,96665.05
2019-05-09T15:16:10.925Z,96671.57
2019-05-09T15:18:41.683Z,96677.86
2019-05-09T15:21:11.842Z,96681.70
2019-05-09T15:23:41.756Z,96682.66
2019-05-09T15:26:11.906Z,96681.41
2019-05-09T15:28:41.900Z,96682.11
2019-05-09T15:31:11.811Z,96684.53
2019-05-09T15:33:41.748Z,96695.05
2019-05-09T15:36:11.799Z,96688.33
2019-05-09T15:38:41.757Z,96692.64
2019-05-09T15:41:12.376Z,96696.66
2019-05-09T15:43:42.319Z,96701.03
2019-05-09T15:46:43.316Z,96705.16
2019-05-09T15:49:13.286Z,96706.28
2019-05-09T15:51:43.362Z,96715.00
2019-05-09T15:54:13.425Z,96714.81
2019-05-09T15:56:44.298Z,96715.90
2019-05-09T15:59:14.391Z,96712.50
2019-05-09T16:01:44.581Z,96716.48
2019-05-09T16:04:14.774Z,96709.66
2019-05-09T16:06:49.454Z,96721.82
2019-05-09T16:09:17.991Z,96720.00
2019-05-09T16:11:48.508Z,96722.77
2019-05-09T16:14:18.715Z,96723.70
2019-05-09T16:16:48.649Z,96718.14
2019-05-09T16:19:18.653Z,96727.30
2019-05-09T16:21:48.632Z,96716.98
2019-05-09T16:24:19.035Z,96756.53
2019-05-09T16:26:49.498Z,96753.04
2019-05-09T16:29:19.476Z,96744.52
2019-05-09T16:31:49.429Z,96743.70
2019-05-09T16:34:19.390Z,96755.48
2019-05-09T16:36:49.269Z,96758.17
2019-05-09T16:39:19.534Z,96754.82
2019-05-09T16:41:49.420Z,96769.41
2019-05-09T16:44:19.340Z,96763.78
2019-05-09T16:46:49.685Z,96772.61
2019-05-09T16:49:20.246Z,96775.41
2019-05-09T16:51:50.438Z,96781.35
2019-05-09T16:54:22.022Z,96786.01
2019-05-09T16:56:51.902Z,96799.56
2019-05-09T16:59:21.887Z,96794.44
2019-05-09T17:01:52.152Z,96795.77
2019-05-09T17:04:22.116Z,96785.36
2019-05-09T17:06:52.027Z,96784.00
2019-05-09T17:09:22.990Z,96794.77
2019-05-09T17:11:53.715Z,96805.17
2019-05-09T17:14:23.664Z,96813.03
2019-05-09T17:16:53.539Z,96813.16
2019-05-09T17:19:24.243Z,96810.88
2019-05-09T17:22:15.862Z,96802.34
2019-05-09T17:24:48.338Z,96819.04
2019-05-09T17:27:19.009Z,96826.55
2019-05-09T17:29:49.304Z,96820.53
2019-05-09T17:32:20.007Z,96829.74
2019-05-09T17:34:50.039Z,96842.86
2019-05-09T17:37:19.968Z,96845.70
2019-05-09T17:39:50.781Z,96841.23
2019-05-09T17:42:20.986Z,96855.83
2019-05-09T17:44:50.908Z,96862.98
2019-05-09T17:47:20.856Z,96863.50
2019-05-09T17:49:51.484Z,96859.59
2019-05-09T17:52:21.838Z,96865.48
2019-05-09T17:54:51.787Z,96868.37
2019-05-09T17:57:21.911Z,96863.06
2019-05-09T17:59:51.836Z,96867.93
2019-05-09T18:02:21.728Z,96861.45
2019-05-09T18:04:52.286Z,96868.12
2019-05-09T18:07:22.187Z,96867.82
2019-05-09T18:09:52.348Z,96873.80
2019-05-09T18:12:22.307Z,96875.37
2019-05-09T18:14:52.261Z,96876.27
2019-05-09T18:17:22.139Z,96885.82
2019-05-09T18:19:52.911Z,96883.99
2019-05-09T18:22:23.078Z,96891.58
2019-05-09T18:24:53.096Z,96892.71
2019-05-09T18:27:23.088Z,96898.66
2019-05-09T18:29:53.167Z,96909.66
2019-05-09T18:32:47.952Z,96908.56
2019-05-09T18:35:20.432Z,96905.85
2019-05-09T18:37:50.669Z,96909.64
2019-05-09T18:40:21.191Z,96922.31
2019-05-09T18:42:51.141Z,96928.39
2019-05-09T18:45:21.859Z,96922.83
2019-05-09T18:47:52.175Z,96935.31
2019-05-09T18:50:22.219Z,96934.31
2019-05-09T18:52:52.246Z,96937.51
2019-05-09T18:55:22.605Z,96942.34
2019-05-09T18:57:52.516Z,96937.95
2019-05-09T19:00:22.812Z,96952.53
2019-05-09T19:02:52.859Z,96954.24
2019-05-09T19:05:22.943Z,96955.08
2019-05-09T19:07:52.838Z,96962.91
2019-05-09T19:10:23.193Z,96960.69
2019-05-09T19:12:53.085Z,96976.97
2019-05-09T19:15:48.190Z,96977.27
2019-05-09T19:18:39.847Z,96980.91
2019-05-09T19:21:23.356Z,96990.59
2019-05-09T19:23:53.575Z,96990.45
2019-05-09T19:26:39.196Z,96997.31
2019-05-09T19:29:10.327Z,96996.08
2019-05-09T19:31:40.579Z,97007.68
2019-05-09T19:34:10.549Z,97004.30
2019-05-09T19:36:40.653Z,97010.35
2019-05-09T19:39:11.377Z,97015.02
2019-05-09T19:41:41.750Z,97022.86
2019-05-09T19:44:11.647Z,97031.94
2019-05-09T19:46:41.706Z,97034.91
2019-05-09T19:49:11.663Z,97044.10
2019-05-09T19:51:41.825Z,97053.36
2019-05-09T19:54:11.775Z,97046.48
2019-05-09T19:56:42.674Z,97050.75
2019-05-09T19:59:12.585Z,97053.43
2019-05-09T20:01:42.500Z,97050.54
2019-05-09T20:04:12.411Z,97051.33
2019-05-09T20:06:42.344Z,97057.13
2019-05-09T20:09:27.113Z,97057.48
2019-05-09T20:12:04.099Z,97065.55
2019-05-09T20:14:39.972Z,97068.16
2019-05-09T20:17:09.933Z,97072.19
2019-05-09T20:19:39.839Z,97076.43
2019-05-09T20:22:09.764Z,97079.72
2019-05-09T20:24:39.820Z,97074.76
2019-05-09T20:27:09.888Z,97083.39
2019-05-09T20:29:39.790Z,97082.34
2019-05-09T20:32:09.902Z,97086.36
2019-05-09T20:34:40.028Z,97089.41
2019-05-09T20:37:10.392Z,97087.48
2019-05-09T20:39:40.509Z,97091.57
2019-05-09T20:42:10.714Z,97093.06
2019-05-09T20:44:41.021Z,97105.72
2019-05-09T20:47:11.543Z,97096.66
2019-05-09T20:49:41.997Z,97097.07
2019-05-09T20:52:12.134Z,97102.28
2019-05-09T20:54:42.558Z,97103.13
2019-05-09T20:57:12.725Z,97105.82
2019-05-09T20:59:42.829Z,97103.55
2019-05-09T21:02:13.273Z,97104.88
2019-05-09T21:04:43.425Z,97113.79
2019-05-09T21:07:13.945Z,97116.53
2019-05-09T21:09:44.012Z,97117.69
2019-05-09T21:12:14.409Z,97126.02
2019-05-09T21:14:44.508Z,97125.16
2019-05-09T21:17:14.712Z,97137.38
2019-05-09T21:19:44.787Z,97143.33
2019-05-09T21:22:14.889Z,97138.73
2019-05-09T21:24:44.970Z,97139.31
2019-05-09T21:27:15.114Z,97146.95
2019-05-09T21:29:45.331Z,97144.33
2019-05-09T21:32:15.595Z,97151.77
2019-05-09T21:34:45.472Z,97150.33
2019-05-09T21:37:15.514Z,97147.56
2019-05-09T21:39:45.488Z,97151.08
2019-05-09T21:42:15.597Z,97153.67
2019-05-09T21:44:45.564Z,97150.27
2019-05-09T21:47:15.477Z,97158.45
2019-05-09T21:49:45.384Z,97161.77
2019-05-09T21:52:15.767Z,97159.73
2019-05-09T21:54:45.652Z,97168.73
2019-05-09T21:57:15.611Z,97171.86
2019-05-09T21:59:45.719Z,97179.41
2019-05-09T22:02:16.153Z,97180.90
2019-05-09T22:04:46.176Z,97182.86
2019-05-09T22:07:16.299Z,97190.66
2019-05-09T22:09:46.392Z,97189.22
2019-05-09T22:12:16.753Z,97191.34
2019-05-09T22:14:46.855Z,97194.88
2019-05-09T22:17:31.318Z,97197.11
2019-05-09T22:20:01.590Z,97195.44
2019-05-09T22:22:31.669Z,97209.73
2019-05-09T22:25:01.644Z,97210.79
2019-05-09T22:27:31.567Z,97218.92
2019-05-09T22:30:01.464Z,97217.55
2019-05-09T22:32:31.401Z,97218.23
2019-05-09T22:35:01.349Z,97219.52
2019-05-09T22:37:31.261Z,97217.19
2019-05-09T22:40:01.214Z,97224.64
2019-05-09T22:42:31.306Z,97223.78
2019-05-09T22:45:01.393Z,97224.97
2019-05-09T22:47:31.547Z,97225.16
2019-05-09T22:50:01.504Z,97226.42
2019-05-09T22:52:31.526Z,97230.45
2019-05-09T22:55:01.582Z,97225.47
2019-05-09T22:57:31.522Z,97221.38
2019-05-09T23:00:01.702Z,97220.60
2019-05-09T23:02:31.802Z,97229.50
2019-05-09T23:05:01.741Z,97223.83
2019-05-09T23:07:31.697Z,97233.91
2019-05-09T23:10:01.647Z,97235.90
2019-05-09T23:12:31.559Z,97233.17
2019-05-09T23:15:01.524Z,97238.07
2019-05-09T23:17:31.434Z,97237.52
2019-05-09T23:20:03.267Z,97245.78
2019-05-09T23:22:33.510Z,97242.56
2019-05-09T23:25:03.346Z,97238.22
2019-05-09T23:27:33.357Z,97240.67
2019-05-09T23:30:03.488Z,97243.70
2019-05-09T23:32:41.342Z,97239.61
2019-05-09T23:35:11.390Z,97246.28
2019-05-09T23:37:41.415Z,97236.73
2019-05-09T23:40:12.577Z,97244.36
2019-05-09T23:42:42.485Z,97250.43
2019-05-09T23:45:13.258Z,97243.21
2019-05-09T23:47:43.172Z,97250.73
2019-05-09T23:50:13.294Z,97245.08
2019-05-09T23:52:43.256Z,97251.85
2019-05-09T23:55:30.748Z,97249.20
2019-05-09T23:58:18.107Z,97254.17
